<?xml version="1.0" encoding="utf-8"?>
<gpx xmlns:xsi="http://www.w3.org/2001/XMLSchema-instance" xmlns:xsd="http://www.w3.org/2001/XMLSchema" version="1.1" creator="Shapelink.com" xmlns="http://www.topografix.com/GPX/1/1" xmlns:gpxtpx="http://www.garmin.com/xmlschemas/TrackPointExtension/v1">
  <metadata>
    <name>Cycling 7.30 km, 2014-06-20</name>
    <desc></desc>
    <author><name>David Ståhlman</name></author> 
    <time>2014-06-20T10:02:07Z</time>
  </metadata>
  <trk>
    <name>Cycling 7.30 km, 2014-06-20</name>
    <trkseg>
      <trkpt lat="60.3409913" lon="20.3854882">
        <ele>5.90527</ele>
        <time>2014-06-20T10:02:07Z</time>
      </trkpt>
      <trkpt lat="60.3410468" lon="20.3854266">
        <ele>6.86646</ele>
        <time>2014-06-20T10:02:47Z</time>
      </trkpt>
      <trkpt lat="60.3410638" lon="20.3853805">
        <ele>6.86646</ele>
        <time>2014-06-20T10:02:52Z</time>
      </trkpt>
      <trkpt lat="60.3410544" lon="20.3852048">
        <ele>6.86646</ele>
        <time>2014-06-20T10:02:57Z</time>
      </trkpt>
      <trkpt lat="60.3409852" lon="20.384833">
        <ele>7.82788</ele>
        <time>2014-06-20T10:03:02Z</time>
      </trkpt>
      <trkpt lat="60.3409023" lon="20.3842188">
        <ele>7.82788</ele>
        <time>2014-06-20T10:03:08Z</time>
      </trkpt>
      <trkpt lat="60.3408141" lon="20.3835383">
        <ele>8.78918</ele>
        <time>2014-06-20T10:03:14Z</time>
      </trkpt>
      <trkpt lat="60.3407863" lon="20.3829333">
        <ele>9.2699</ele>
        <time>2014-06-20T10:03:19Z</time>
      </trkpt>
      <trkpt lat="60.3408033" lon="20.382032">
        <ele>8.30859</ele>
        <time>2014-06-20T10:03:26Z</time>
      </trkpt>
      <trkpt lat="60.3408499" lon="20.3812944">
        <ele>9.2699</ele>
        <time>2014-06-20T10:03:32Z</time>
      </trkpt>
      <trkpt lat="60.3408731" lon="20.3810193">
        <ele>9.2699</ele>
        <time>2014-06-20T10:03:35Z</time>
      </trkpt>
      <trkpt lat="60.3408381" lon="20.3806705">
        <ele>8.78918</ele>
        <time>2014-06-20T10:03:39Z</time>
      </trkpt>
      <trkpt lat="60.340633" lon="20.3801269">
        <ele>7.34717</ele>
        <time>2014-06-20T10:03:45Z</time>
      </trkpt>
      <trkpt lat="60.3405402" lon="20.3799402">
        <ele>6.86646</ele>
        <time>2014-06-20T10:03:47Z</time>
      </trkpt>
      <trkpt lat="60.3404091" lon="20.3794658">
        <ele>6.38586</ele>
        <time>2014-06-20T10:03:51Z</time>
      </trkpt>
      <trkpt lat="60.3404103" lon="20.3793253">
        <ele>6.38586</ele>
        <time>2014-06-20T10:03:52Z</time>
      </trkpt>
      <trkpt lat="60.3403976" lon="20.3786561">
        <ele>6.86646</ele>
        <time>2014-06-20T10:03:57Z</time>
      </trkpt>
      <trkpt lat="60.3402942" lon="20.3778418">
        <ele>9.75061</ele>
        <time>2014-06-20T10:04:04Z</time>
      </trkpt>
      <trkpt lat="60.3402717" lon="20.3776832">
        <ele>10.7118</ele>
        <time>2014-06-20T10:04:06Z</time>
      </trkpt>
      <trkpt lat="60.3402563" lon="20.3775316">
        <ele>11.6732</ele>
        <time>2014-06-20T10:04:08Z</time>
      </trkpt>
      <trkpt lat="60.3402833" lon="20.3769644">
        <ele>11.1925</ele>
        <time>2014-06-20T10:04:14Z</time>
      </trkpt>
      <trkpt lat="60.3403183" lon="20.3766122">
        <ele>10.7118</ele>
        <time>2014-06-20T10:04:17Z</time>
      </trkpt>
      <trkpt lat="60.3402952" lon="20.3760392">
        <ele>9.2699</ele>
        <time>2014-06-20T10:04:21Z</time>
      </trkpt>
      <trkpt lat="60.3402542" lon="20.3757602">
        <ele>8.30859</ele>
        <time>2014-06-20T10:04:23Z</time>
      </trkpt>
      <trkpt lat="60.3402689" lon="20.3752989">
        <ele>7.82788</ele>
        <time>2014-06-20T10:04:27Z</time>
      </trkpt>
      <trkpt lat="60.3403134" lon="20.3751346">
        <ele>7.34717</ele>
        <time>2014-06-20T10:04:29Z</time>
      </trkpt>
      <trkpt lat="60.3403779" lon="20.3749376">
        <ele>7.82788</ele>
        <time>2014-06-20T10:04:32Z</time>
      </trkpt>
      <trkpt lat="60.3404113" lon="20.3747788">
        <ele>7.82788</ele>
        <time>2014-06-20T10:04:34Z</time>
      </trkpt>
      <trkpt lat="60.3404232" lon="20.3741878">
        <ele>8.30859</ele>
        <time>2014-06-20T10:04:40Z</time>
      </trkpt>
      <trkpt lat="60.3403869" lon="20.3734851">
        <ele>8.30859</ele>
        <time>2014-06-20T10:04:47Z</time>
      </trkpt>
      <trkpt lat="60.3404866" lon="20.3728684">
        <ele>8.30859</ele>
        <time>2014-06-20T10:04:53Z</time>
      </trkpt>
      <trkpt lat="60.3406598" lon="20.3724752">
        <ele>6.38586</ele>
        <time>2014-06-20T10:04:57Z</time>
      </trkpt>
      <trkpt lat="60.3408516" lon="20.3718225">
        <ele>4.46326</ele>
        <time>2014-06-20T10:05:02Z</time>
      </trkpt>
      <trkpt lat="60.3409105" lon="20.3713687">
        <ele>3.50195</ele>
        <time>2014-06-20T10:05:05Z</time>
      </trkpt>
      <trkpt lat="60.340885" lon="20.3707627">
        <ele>3.50195</ele>
        <time>2014-06-20T10:05:09Z</time>
      </trkpt>
      <trkpt lat="60.3407535" lon="20.3704348">
        <ele>4.94385</ele>
        <time>2014-06-20T10:05:12Z</time>
      </trkpt>
      <trkpt lat="60.3406431" lon="20.370253">
        <ele>6.38586</ele>
        <time>2014-06-20T10:05:14Z</time>
      </trkpt>
      <trkpt lat="60.3404392" lon="20.3696894">
        <ele>7.34717</ele>
        <time>2014-06-20T10:05:19Z</time>
      </trkpt>
      <trkpt lat="60.3403953" lon="20.3695702">
        <ele>6.86646</ele>
        <time>2014-06-20T10:05:20Z</time>
      </trkpt>
      <trkpt lat="60.3400096" lon="20.3689398">
        <ele>4.46326</ele>
        <time>2014-06-20T10:05:26Z</time>
      </trkpt>
      <trkpt lat="60.3395413" lon="20.3682581">
        <ele>3.50195</ele>
        <time>2014-06-20T10:05:33Z</time>
      </trkpt>
      <trkpt lat="60.3391084" lon="20.3678044">
        <ele>3.98267</ele>
        <time>2014-06-20T10:05:39Z</time>
      </trkpt>
      <trkpt lat="60.3387184" lon="20.3673827">
        <ele>5.42456</ele>
        <time>2014-06-20T10:05:45Z</time>
      </trkpt>
      <trkpt lat="60.3386575" lon="20.3673193">
        <ele>5.90527</ele>
        <time>2014-06-20T10:05:46Z</time>
      </trkpt>
      <trkpt lat="60.3381967" lon="20.3670219">
        <ele>4.94385</ele>
        <time>2014-06-20T10:05:53Z</time>
      </trkpt>
      <trkpt lat="60.3377718" lon="20.3667151">
        <ele>6.38586</ele>
        <time>2014-06-20T10:06:01Z</time>
      </trkpt>
      <trkpt lat="60.3375735" lon="20.366528">
        <ele>7.82788</ele>
        <time>2014-06-20T10:06:06Z</time>
      </trkpt>
      <trkpt lat="60.3374868" lon="20.3664611">
        <ele>7.82788</ele>
        <time>2014-06-20T10:06:08Z</time>
      </trkpt>
      <trkpt lat="60.3373104" lon="20.3662931">
        <ele>7.34717</ele>
        <time>2014-06-20T10:06:12Z</time>
      </trkpt>
      <trkpt lat="60.3370228" lon="20.3657742">
        <ele>7.82788</ele>
        <time>2014-06-20T10:06:19Z</time>
      </trkpt>
      <trkpt lat="60.3369871" lon="20.3656824">
        <ele>8.30859</ele>
        <time>2014-06-20T10:06:20Z</time>
      </trkpt>
      <trkpt lat="60.3369609" lon="20.3653221">
        <ele>8.30859</ele>
        <time>2014-06-20T10:06:24Z</time>
      </trkpt>
      <trkpt lat="60.3370787" lon="20.3651956">
        <ele>7.34717</ele>
        <time>2014-06-20T10:06:27Z</time>
      </trkpt>
      <trkpt lat="60.3374512" lon="20.3646745">
        <ele>6.38586</ele>
        <time>2014-06-20T10:06:35Z</time>
      </trkpt>
      <trkpt lat="60.3377776" lon="20.3639989">
        <ele>3.02124</ele>
        <time>2014-06-20T10:06:42Z</time>
      </trkpt>
      <trkpt lat="60.3378243" lon="20.3638788">
        <ele>2.06006</ele>
        <time>2014-06-20T10:06:43Z</time>
      </trkpt>
      <trkpt lat="60.3381578" lon="20.3629024">
        <ele>1.57935</ele>
        <time>2014-06-20T10:06:50Z</time>
      </trkpt>
      <trkpt lat="60.3384107" lon="20.3620144">
        <ele>2.54065</ele>
        <time>2014-06-20T10:06:56Z</time>
      </trkpt>
      <trkpt lat="60.3386086" lon="20.3612715">
        <ele>2.06006</ele>
        <time>2014-06-20T10:07:02Z</time>
      </trkpt>
      <trkpt lat="60.3388425" lon="20.3603465">
        <ele>2.54065</ele>
        <time>2014-06-20T10:07:10Z</time>
      </trkpt>
      <trkpt lat="60.3390982" lon="20.3592998">
        <ele>2.06006</ele>
        <time>2014-06-20T10:07:18Z</time>
      </trkpt>
      <trkpt lat="60.3393737" lon="20.3583864">
        <ele>1.57935</ele>
        <time>2014-06-20T10:07:25Z</time>
      </trkpt>
      <trkpt lat="60.3396632" lon="20.3577045">
        <ele>0.618042</ele>
        <time>2014-06-20T10:07:31Z</time>
      </trkpt>
      <trkpt lat="60.3399978" lon="20.3571732">
        <ele>1.09863</ele>
        <time>2014-06-20T10:07:37Z</time>
      </trkpt>
      <trkpt lat="60.3404537" lon="20.3566055">
        <ele>2.06006</ele>
        <time>2014-06-20T10:07:45Z</time>
      </trkpt>
      <trkpt lat="60.3409971" lon="20.3559529">
        <ele>2.54065</ele>
        <time>2014-06-20T10:07:55Z</time>
      </trkpt>
      <trkpt lat="60.3413455" lon="20.3555297">
        <ele>3.02124</ele>
        <time>2014-06-20T10:08:02Z</time>
      </trkpt>
      <trkpt lat="60.3415779" lon="20.3552414">
        <ele>4.94385</ele>
        <time>2014-06-20T10:08:08Z</time>
      </trkpt>
      <trkpt lat="60.3418606" lon="20.3549037">
        <ele>7.82788</ele>
        <time>2014-06-20T10:08:18Z</time>
      </trkpt>
      <trkpt lat="60.3420192" lon="20.3546945">
        <ele>8.30859</ele>
        <time>2014-06-20T10:08:25Z</time>
      </trkpt>
      <trkpt lat="60.3422163" lon="20.3544509">
        <ele>9.75061</ele>
        <time>2014-06-20T10:08:33Z</time>
      </trkpt>
      <trkpt lat="60.3424118" lon="20.3541263">
        <ele>10.2312</ele>
        <time>2014-06-20T10:08:41Z</time>
      </trkpt>
      <trkpt lat="60.3425677" lon="20.3537968">
        <ele>11.1925</ele>
        <time>2014-06-20T10:08:47Z</time>
      </trkpt>
      <trkpt lat="60.3427366" lon="20.3533285">
        <ele>12.1538</ele>
        <time>2014-06-20T10:08:54Z</time>
      </trkpt>
      <trkpt lat="60.3427823" lon="20.3531959">
        <ele>12.1538</ele>
        <time>2014-06-20T10:08:56Z</time>
      </trkpt>
      <trkpt lat="60.342875" lon="20.3528245">
        <ele>14.557</ele>
        <time>2014-06-20T10:09:01Z</time>
      </trkpt>
      <trkpt lat="60.3428681" lon="20.3520857">
        <ele>17.4412</ele>
        <time>2014-06-20T10:09:10Z</time>
      </trkpt>
      <trkpt lat="60.3428443" lon="20.3513011">
        <ele>20.325</ele>
        <time>2014-06-20T10:09:19Z</time>
      </trkpt>
      <trkpt lat="60.3428525" lon="20.3510193">
        <ele>22.2476</ele>
        <time>2014-06-20T10:09:22Z</time>
      </trkpt>
      <trkpt lat="60.3429142" lon="20.3505418">
        <ele>22.2476</ele>
        <time>2014-06-20T10:09:27Z</time>
      </trkpt>
      <trkpt lat="60.3431224" lon="20.349878">
        <ele>21.767</ele>
        <time>2014-06-20T10:09:33Z</time>
      </trkpt>
      <trkpt lat="60.3434596" lon="20.3489418">
        <ele>19.8444</ele>
        <time>2014-06-20T10:09:40Z</time>
      </trkpt>
      <trkpt lat="60.3436913" lon="20.3481633">
        <ele>19.8444</ele>
        <time>2014-06-20T10:09:46Z</time>
      </trkpt>
      <trkpt lat="60.3439029" lon="20.3475085">
        <ele>21.2864</ele>
        <time>2014-06-20T10:09:52Z</time>
      </trkpt>
      <trkpt lat="60.3441016" lon="20.3470855">
        <ele>22.2476</ele>
        <time>2014-06-20T10:09:58Z</time>
      </trkpt>
      <trkpt lat="60.3443401" lon="20.3466493">
        <ele>21.767</ele>
        <time>2014-06-20T10:10:05Z</time>
      </trkpt>
      <trkpt lat="60.3445755" lon="20.3460784">
        <ele>20.325</ele>
        <time>2014-06-20T10:10:12Z</time>
      </trkpt>
      <trkpt lat="60.3448198" lon="20.3453283">
        <ele>19.3638</ele>
        <time>2014-06-20T10:10:20Z</time>
      </trkpt>
      <trkpt lat="60.3448454" lon="20.3452345">
        <ele>19.3638</ele>
        <time>2014-06-20T10:10:21Z</time>
      </trkpt>
      <trkpt lat="60.3449184" lon="20.3449643">
        <ele>20.325</ele>
        <time>2014-06-20T10:10:24Z</time>
      </trkpt>
      <trkpt lat="60.3449548" lon="20.3447688">
        <ele>19.8444</ele>
        <time>2014-06-20T10:10:26Z</time>
      </trkpt>
      <trkpt lat="60.3451381" lon="20.3440033">
        <ele>19.8444</ele>
        <time>2014-06-20T10:10:32Z</time>
      </trkpt>
      <trkpt lat="60.3452168" lon="20.3436604">
        <ele>20.8057</ele>
        <time>2014-06-20T10:10:34Z</time>
      </trkpt>
      <trkpt lat="60.3453401" lon="20.3427881">
        <ele>18.8831</ele>
        <time>2014-06-20T10:10:38Z</time>
      </trkpt>
      <trkpt lat="60.3456189" lon="20.3421116">
        <ele>14.557</ele>
        <time>2014-06-20T10:10:42Z</time>
      </trkpt>
      <trkpt lat="60.3458063" lon="20.3419195">
        <ele>13.1151</ele>
        <time>2014-06-20T10:10:44Z</time>
      </trkpt>
      <trkpt lat="60.3461653" lon="20.3416194">
        <ele>10.2312</ele>
        <time>2014-06-20T10:10:48Z</time>
      </trkpt>
      <trkpt lat="60.3464491" lon="20.341119">
        <ele>8.78918</ele>
        <time>2014-06-20T10:10:52Z</time>
      </trkpt>
      <trkpt lat="60.3467546" lon="20.3395131">
        <ele>6.38586</ele>
        <time>2014-06-20T10:11:00Z</time>
      </trkpt>
      <trkpt lat="60.3467836" lon="20.3391242">
        <ele>5.90527</ele>
        <time>2014-06-20T10:11:02Z</time>
      </trkpt>
      <trkpt lat="60.3467095" lon="20.3382302">
        <ele>6.86646</ele>
        <time>2014-06-20T10:11:07Z</time>
      </trkpt>
      <trkpt lat="60.3464974" lon="20.3372584">
        <ele>9.2699</ele>
        <time>2014-06-20T10:11:13Z</time>
      </trkpt>
      <trkpt lat="60.3464367" lon="20.3364321">
        <ele>10.7118</ele>
        <time>2014-06-20T10:11:19Z</time>
      </trkpt>
      <trkpt lat="60.3464221" lon="20.3358813">
        <ele>11.1925</ele>
        <time>2014-06-20T10:11:23Z</time>
      </trkpt>
      <trkpt lat="60.3465047" lon="20.3353313">
        <ele>10.7118</ele>
        <time>2014-06-20T10:11:27Z</time>
      </trkpt>
      <trkpt lat="60.3466038" lon="20.3350998">
        <ele>9.75061</ele>
        <time>2014-06-20T10:11:29Z</time>
      </trkpt>
      <trkpt lat="60.3469609" lon="20.3344668">
        <ele>8.78918</ele>
        <time>2014-06-20T10:11:35Z</time>
      </trkpt>
      <trkpt lat="60.3471832" lon="20.3338636">
        <ele>8.78918</ele>
        <time>2014-06-20T10:11:40Z</time>
      </trkpt>
      <trkpt lat="60.3472205" lon="20.3337316">
        <ele>8.78918</ele>
        <time>2014-06-20T10:11:41Z</time>
      </trkpt>
      <trkpt lat="60.3474331" lon="20.3326816">
        <ele>9.2699</ele>
        <time>2014-06-20T10:11:49Z</time>
      </trkpt>
      <trkpt lat="60.3475801" lon="20.3319433">
        <ele>8.30859</ele>
        <time>2014-06-20T10:11:56Z</time>
      </trkpt>
      <trkpt lat="60.3476013" lon="20.3318428">
        <ele>8.30859</ele>
        <time>2014-06-20T10:11:57Z</time>
      </trkpt>
      <trkpt lat="60.3477653" lon="20.3313592">
        <ele>7.34717</ele>
        <time>2014-06-20T10:12:02Z</time>
      </trkpt>
      <trkpt lat="60.3478821" lon="20.3306831">
        <ele>6.38586</ele>
        <time>2014-06-20T10:12:07Z</time>
      </trkpt>
      <trkpt lat="60.3478072" lon="20.33025">
        <ele>6.86646</ele>
        <time>2014-06-20T10:12:10Z</time>
      </trkpt>
      <trkpt lat="60.3476888" lon="20.3300449">
        <ele>7.82788</ele>
        <time>2014-06-20T10:12:12Z</time>
      </trkpt>
      <trkpt lat="60.3472019" lon="20.329541">
        <ele>7.34717</ele>
        <time>2014-06-20T10:12:19Z</time>
      </trkpt>
      <trkpt lat="60.346833" lon="20.3293058">
        <ele>7.82788</ele>
        <time>2014-06-20T10:12:24Z</time>
      </trkpt>
      <trkpt lat="60.3463859" lon="20.3290551">
        <ele>8.30859</ele>
        <time>2014-06-20T10:12:30Z</time>
      </trkpt>
      <trkpt lat="60.3460783" lon="20.328604">
        <ele>8.78918</ele>
        <time>2014-06-20T10:12:35Z</time>
      </trkpt>
      <trkpt lat="60.3456784" lon="20.3280533">
        <ele>7.82788</ele>
        <time>2014-06-20T10:12:41Z</time>
      </trkpt>
      <trkpt lat="60.34524" lon="20.3275606">
        <ele>8.78918</ele>
        <time>2014-06-20T10:12:48Z</time>
      </trkpt>
      <trkpt lat="60.3449257" lon="20.327049">
        <ele>9.75061</ele>
        <time>2014-06-20T10:12:54Z</time>
      </trkpt>
      <trkpt lat="60.3444646" lon="20.3261791">
        <ele>8.78918</ele>
        <time>2014-06-20T10:13:03Z</time>
      </trkpt>
      <trkpt lat="60.344186" lon="20.3256317">
        <ele>10.2312</ele>
        <time>2014-06-20T10:13:09Z</time>
      </trkpt>
      <trkpt lat="60.3439254" lon="20.3251632">
        <ele>12.6344</ele>
        <time>2014-06-20T10:13:15Z</time>
      </trkpt>
      <trkpt lat="60.3436664" lon="20.3246268">
        <ele>13.5958</ele>
        <time>2014-06-20T10:13:22Z</time>
      </trkpt>
      <trkpt lat="60.3435199" lon="20.3244297">
        <ele>15.0377</ele>
        <time>2014-06-20T10:13:26Z</time>
      </trkpt>
      <trkpt lat="60.3432054" lon="20.3242687">
        <ele>17.4412</ele>
        <time>2014-06-20T10:13:34Z</time>
      </trkpt>
      <trkpt lat="60.343126" lon="20.3242521">
        <ele>17.9218</ele>
        <time>2014-06-20T10:13:36Z</time>
      </trkpt>
      <trkpt lat="60.3428401" lon="20.3241444">
        <ele>19.8444</ele>
        <time>2014-06-20T10:13:44Z</time>
      </trkpt>
      <trkpt lat="60.3425844" lon="20.3239109">
        <ele>20.325</ele>
        <time>2014-06-20T10:13:52Z</time>
      </trkpt>
      <trkpt lat="60.3424485" lon="20.3236217">
        <ele>25.6123</ele>
        <time>2014-06-20T10:13:59Z</time>
      </trkpt>
      <trkpt lat="60.3423162" lon="20.3231651">
        <ele>29.9381</ele>
        <time>2014-06-20T10:14:08Z</time>
      </trkpt>
      <trkpt lat="60.3422013" lon="20.3226883">
        <ele>31.3801</ele>
        <time>2014-06-20T10:14:16Z</time>
      </trkpt>
      <trkpt lat="60.3420859" lon="20.3221882">
        <ele>34.2642</ele>
        <time>2014-06-20T10:14:23Z</time>
      </trkpt>
      <trkpt lat="60.3418547" lon="20.3214532">
        <ele>34.7449</ele>
        <time>2014-06-20T10:14:32Z</time>
      </trkpt>
      <trkpt lat="60.3416643" lon="20.3208831">
        <ele>33.7834</ele>
        <time>2014-06-20T10:14:38Z</time>
      </trkpt>
      <trkpt lat="60.3416297" lon="20.3207805">
        <ele>33.3029</ele>
        <time>2014-06-20T10:14:39Z</time>
      </trkpt>
      <trkpt lat="60.3415544" lon="20.3202023">
        <ele>32.8223</ele>
        <time>2014-06-20T10:14:44Z</time>
      </trkpt>
      <trkpt lat="60.3415755" lon="20.3199587">
        <ele>33.3029</ele>
        <time>2014-06-20T10:14:46Z</time>
      </trkpt>
      <trkpt lat="60.3416259" lon="20.3192031">
        <ele>32.8223</ele>
        <time>2014-06-20T10:14:53Z</time>
      </trkpt>
      <trkpt lat="60.3415778" lon="20.3186612">
        <ele>34.2642</ele>
        <time>2014-06-20T10:14:59Z</time>
      </trkpt>
      <trkpt lat="60.3414885" lon="20.3181231">
        <ele>34.7449</ele>
        <time>2014-06-20T10:15:05Z</time>
      </trkpt>
      <trkpt lat="60.3414613" lon="20.3174621">
        <ele>37.1481</ele>
        <time>2014-06-20T10:15:11Z</time>
      </trkpt>
      <trkpt lat="60.3414834" lon="20.3166302">
        <ele>38.1094</ele>
        <time>2014-06-20T10:15:19Z</time>
      </trkpt>
      <trkpt lat="60.3415114" lon="20.3163576">
        <ele>39.0707</ele>
        <time>2014-06-20T10:15:22Z</time>
      </trkpt>
      <trkpt lat="60.3416771" lon="20.3157833">
        <ele>40.5128</ele>
        <time>2014-06-20T10:15:30Z</time>
      </trkpt>
      <trkpt lat="60.3417299" lon="20.3156795">
        <ele>39.5513</ele>
        <time>2014-06-20T10:15:32Z</time>
      </trkpt>
      <trkpt lat="60.3420247" lon="20.3153335">
        <ele>37.1481</ele>
        <time>2014-06-20T10:15:40Z</time>
      </trkpt>
      <trkpt lat="60.3422662" lon="20.3149135">
        <ele>33.7834</ele>
        <time>2014-06-20T10:15:46Z</time>
      </trkpt>
      <trkpt lat="60.3423848" lon="20.3145968">
        <ele>31.8607</ele>
        <time>2014-06-20T10:15:49Z</time>
      </trkpt>
      <trkpt lat="60.3425012" lon="20.3138987">
        <ele>31.8607</ele>
        <time>2014-06-20T10:15:54Z</time>
      </trkpt>
      <trkpt lat="60.3424945" lon="20.3133476">
        <ele>32.8223</ele>
        <time>2014-06-20T10:15:58Z</time>
      </trkpt>
      <trkpt lat="60.3424305" lon="20.3126746">
        <ele>33.3029</ele>
        <time>2014-06-20T10:16:03Z</time>
      </trkpt>
      <trkpt lat="60.3423294" lon="20.3118019">
        <ele>34.7449</ele>
        <time>2014-06-20T10:16:09Z</time>
      </trkpt>
      <trkpt lat="60.3422016" lon="20.3110164">
        <ele>35.2255</ele>
        <time>2014-06-20T10:16:14Z</time>
      </trkpt>
      <trkpt lat="60.341997" lon="20.3104367">
        <ele>36.1868</ele>
        <time>2014-06-20T10:16:18Z</time>
      </trkpt>
      <trkpt lat="60.3416403" lon="20.3098706">
        <ele>34.2642</ele>
        <time>2014-06-20T10:16:23Z</time>
      </trkpt>
      <trkpt lat="60.3414657" lon="20.3097186">
        <ele>32.8223</ele>
        <time>2014-06-20T10:16:25Z</time>
      </trkpt>
      <trkpt lat="60.3410193" lon="20.3095107">
        <ele>28.4962</ele>
        <time>2014-06-20T10:16:30Z</time>
      </trkpt>
      <trkpt lat="60.3408641" lon="20.3095795">
        <ele>26.0929</ele>
        <time>2014-06-20T10:16:34Z</time>
      </trkpt>
      <trkpt lat="60.3407788" lon="20.3095047">
        <ele>24.1703</ele>
        <time>2014-06-20T10:16:40Z</time>
      </trkpt>
      <trkpt lat="60.3405003" lon="20.3094365">
        <ele>22.7283</ele>
        <time>2014-06-20T10:16:48Z</time>
      </trkpt>
      <trkpt lat="60.3403201" lon="20.3094017">
        <ele>20.8057</ele>
        <time>2014-06-20T10:16:53Z</time>
      </trkpt>
      <trkpt lat="60.3402133" lon="20.309365">
        <ele>19.8444</ele>
        <time>2014-06-20T10:16:57Z</time>
      </trkpt>
      <trkpt lat="60.3400422" lon="20.3092957">
        <ele>18.8831</ele>
        <time>2014-06-20T10:17:03Z</time>
      </trkpt>
      <trkpt lat="60.3398196" lon="20.3092257">
        <ele>19.3638</ele>
        <time>2014-06-20T10:17:10Z</time>
      </trkpt>
      <trkpt lat="60.3396544" lon="20.3091392">
        <ele>20.8057</ele>
        <time>2014-06-20T10:17:16Z</time>
      </trkpt>
      <trkpt lat="60.3395201" lon="20.3089939">
        <ele>21.767</ele>
        <time>2014-06-20T10:17:21Z</time>
      </trkpt>
      <trkpt lat="60.3393398" lon="20.3087055">
        <ele>23.209</ele>
        <time>2014-06-20T10:17:29Z</time>
      </trkpt>
      <trkpt lat="60.3392001" lon="20.3085625">
        <ele>22.7283</ele>
        <time>2014-06-20T10:17:34Z</time>
      </trkpt>
      <trkpt lat="60.3390193" lon="20.3084258">
        <ele>21.767</ele>
        <time>2014-06-20T10:17:40Z</time>
      </trkpt>
      <trkpt lat="60.3388186" lon="20.3083425">
        <ele>20.325</ele>
        <time>2014-06-20T10:17:46Z</time>
      </trkpt>
      <trkpt lat="60.338627" lon="20.3082798">
        <ele>17.4412</ele>
        <time>2014-06-20T10:17:52Z</time>
      </trkpt>
      <trkpt lat="60.3384676" lon="20.3082351">
        <ele>16.9604</ele>
        <time>2014-06-20T10:17:57Z</time>
      </trkpt>
      <trkpt lat="60.3383137" lon="20.3081512">
        <ele>17.4412</ele>
        <time>2014-06-20T10:18:02Z</time>
      </trkpt>
      <trkpt lat="60.3381216" lon="20.3079703">
        <ele>15.999</ele>
        <time>2014-06-20T10:18:08Z</time>
      </trkpt>
      <trkpt lat="60.3380321" lon="20.3078575">
        <ele>16.4797</ele>
        <time>2014-06-20T10:18:12Z</time>
      </trkpt>
      <trkpt lat="60.3379273" lon="20.3077064">
        <ele>15.5184</ele>
        <time>2014-06-20T10:18:16Z</time>
      </trkpt>
      <trkpt lat="60.3377885" lon="20.3075977">
        <ele>15.0377</ele>
        <time>2014-06-20T10:18:21Z</time>
      </trkpt>
      <trkpt lat="60.3376347" lon="20.3076261">
        <ele>12.6344</ele>
        <time>2014-06-20T10:18:26Z</time>
      </trkpt>
      <trkpt lat="60.3374332" lon="20.3077764">
        <ele>10.7118</ele>
        <time>2014-06-20T10:18:32Z</time>
      </trkpt>
      <trkpt lat="60.3372691" lon="20.3079048">
        <ele>8.30859</ele>
        <time>2014-06-20T10:18:38Z</time>
      </trkpt>
      <trkpt lat="60.3370828" lon="20.3080213">
        <ele>7.82788</ele>
        <time>2014-06-20T10:18:44Z</time>
      </trkpt>
      <trkpt lat="60.3369126" lon="20.3080888">
        <ele>8.30859</ele>
        <time>2014-06-20T10:18:49Z</time>
      </trkpt>
      <trkpt lat="60.3367111" lon="20.3080959">
        <ele>9.2699</ele>
        <time>2014-06-20T10:18:55Z</time>
      </trkpt>
      <trkpt lat="60.3365115" lon="20.3079731">
        <ele>8.78918</ele>
        <time>2014-06-20T10:19:01Z</time>
      </trkpt>
      <trkpt lat="60.3363659" lon="20.3078576">
        <ele>8.78918</ele>
        <time>2014-06-20T10:19:06Z</time>
      </trkpt>
      <trkpt lat="60.3361702" lon="20.3076882">
        <ele>8.78918</ele>
        <time>2014-06-20T10:19:13Z</time>
      </trkpt>
      <trkpt lat="60.3359844" lon="20.3075907">
        <ele>9.2699</ele>
        <time>2014-06-20T10:19:19Z</time>
      </trkpt>
      <trkpt lat="60.3358123" lon="20.3075727">
        <ele>9.75061</ele>
        <time>2014-06-20T10:19:25Z</time>
      </trkpt>
      <trkpt lat="60.3356475" lon="20.3075443">
        <ele>10.2312</ele>
        <time>2014-06-20T10:19:31Z</time>
      </trkpt>
      <trkpt lat="60.3355813" lon="20.3074516">
        <ele>10.7118</ele>
        <time>2014-06-20T10:19:34Z</time>
      </trkpt>
      <trkpt lat="60.3355574" lon="20.3071698">
        <ele>12.6344</ele>
        <time>2014-06-20T10:19:40Z</time>
      </trkpt>
      <trkpt lat="60.3355715" lon="20.3069345">
        <ele>13.5958</ele>
        <time>2014-06-20T10:19:45Z</time>
      </trkpt>
      <trkpt lat="60.3356108" lon="20.3066751">
        <ele>15.0377</ele>
        <time>2014-06-20T10:19:51Z</time>
      </trkpt>
      <trkpt lat="60.3356305" lon="20.3064761">
        <ele>15.5184</ele>
        <time>2014-06-20T10:19:55Z</time>
      </trkpt>
      <trkpt lat="60.3356166" lon="20.3062205">
        <ele>15.5184</ele>
        <time>2014-06-20T10:19:59Z</time>
      </trkpt>
      <trkpt lat="60.335533" lon="20.3059121">
        <ele>15.5184</ele>
        <time>2014-06-20T10:20:05Z</time>
      </trkpt>
      <trkpt lat="60.3354042" lon="20.3055882">
        <ele>14.0764</ele>
        <time>2014-06-20T10:20:12Z</time>
      </trkpt>
      <trkpt lat="60.3353001" lon="20.3053238">
        <ele>13.1151</ele>
        <time>2014-06-20T10:20:18Z</time>
      </trkpt>
      <trkpt lat="60.3352353" lon="20.3051376">
        <ele>13.1151</ele>
        <time>2014-06-20T10:20:22Z</time>
      </trkpt>
      <trkpt lat="60.3351724" lon="20.3048298">
        <ele>12.6344</ele>
        <time>2014-06-20T10:20:28Z</time>
      </trkpt>
      <trkpt lat="60.3351896" lon="20.3045333">
        <ele>12.1538</ele>
        <time>2014-06-20T10:20:33Z</time>
      </trkpt>
      <trkpt lat="60.3353127" lon="20.3041827">
        <ele>14.0764</ele>
        <time>2014-06-20T10:20:40Z</time>
      </trkpt>
      <trkpt lat="60.3354067" lon="20.3040278">
        <ele>12.1538</ele>
        <time>2014-06-20T10:20:45Z</time>
      </trkpt>
      <trkpt lat="60.3354902" lon="20.3038456">
        <ele>12.6344</ele>
        <time>2014-06-20T10:20:50Z</time>
      </trkpt>
      <trkpt lat="60.3355788" lon="20.3036198">
        <ele>16.4797</ele>
        <time>2014-06-20T10:20:56Z</time>
      </trkpt>
      <trkpt lat="60.3356557" lon="20.3034476">
        <ele>21.2864</ele>
        <time>2014-06-20T10:21:01Z</time>
      </trkpt>
      <trkpt lat="60.3357352" lon="20.3032469">
        <ele>24.1703</ele>
        <time>2014-06-20T10:21:06Z</time>
      </trkpt>
      <trkpt lat="60.3358592" lon="20.3030555">
        <ele>29.9381</ele>
        <time>2014-06-20T10:21:12Z</time>
      </trkpt>
      <trkpt lat="60.3358946" lon="20.3029974">
        <ele>29.9381</ele>
        <time>2014-06-20T10:21:14Z</time>
      </trkpt>
      <trkpt lat="60.3359796" lon="20.302806">
        <ele>31.3801</ele>
        <time>2014-06-20T10:21:19Z</time>
      </trkpt>
      <trkpt lat="60.3360624" lon="20.3025494">
        <ele>34.7449</ele>
        <time>2014-06-20T10:21:25Z</time>
      </trkpt>
      <trkpt lat="60.3361004" lon="20.302235">
        <ele>30.4188</ele>
        <time>2014-06-20T10:21:32Z</time>
      </trkpt>
      <trkpt lat="60.3361191" lon="20.3018876">
        <ele>30.4188</ele>
        <time>2014-06-20T10:21:39Z</time>
      </trkpt>
      <trkpt lat="60.3361548" lon="20.3016428">
        <ele>30.4188</ele>
        <time>2014-06-20T10:21:44Z</time>
      </trkpt>
      <trkpt lat="60.336191" lon="20.3015125">
        <ele>30.4188</ele>
        <time>2014-06-20T10:21:47Z</time>
      </trkpt>
      <trkpt lat="60.3363035" lon="20.3014399">
        <ele>29.4575</ele>
        <time>2014-06-20T10:21:54Z</time>
      </trkpt>
      <trkpt lat="60.3364043" lon="20.3014318">
        <ele>28.4962</ele>
        <time>2014-06-20T10:21:59Z</time>
      </trkpt>
      <trkpt lat="60.3365333" lon="20.3014103">
        <ele>26.5736</ele>
        <time>2014-06-20T10:22:05Z</time>
      </trkpt>
      <trkpt lat="60.3366842" lon="20.3013341">
        <ele>27.5349</ele>
        <time>2014-06-20T10:22:12Z</time>
      </trkpt>
      <trkpt lat="60.3368302" lon="20.3012545">
        <ele>29.4575</ele>
        <time>2014-06-20T10:22:18Z</time>
      </trkpt>
      <trkpt lat="60.3369605" lon="20.3011898">
        <ele>30.4188</ele>
        <time>2014-06-20T10:22:24Z</time>
      </trkpt>
      <trkpt lat="60.3370587" lon="20.3011137">
        <ele>33.7834</ele>
        <time>2014-06-20T10:22:28Z</time>
      </trkpt>
      <trkpt lat="60.3371857" lon="20.3010256">
        <ele>32.8223</ele>
        <time>2014-06-20T10:22:34Z</time>
      </trkpt>
      <trkpt lat="60.3373045" lon="20.3010146">
        <ele>30.8995</ele>
        <time>2014-06-20T10:22:39Z</time>
      </trkpt>
      <trkpt lat="60.3374414" lon="20.3010167">
        <ele>28.9769</ele>
        <time>2014-06-20T10:22:45Z</time>
      </trkpt>
      <trkpt lat="60.3375615" lon="20.3008956">
        <ele>28.4962</ele>
        <time>2014-06-20T10:22:50Z</time>
      </trkpt>
      <trkpt lat="60.3375975" lon="20.3008205">
        <ele>28.0155</ele>
        <time>2014-06-20T10:22:52Z</time>
      </trkpt>
      <trkpt lat="60.3376767" lon="20.3006077">
        <ele>28.4962</ele>
        <time>2014-06-20T10:22:57Z</time>
      </trkpt>
      <trkpt lat="60.3378696" lon="20.3002325">
        <ele>30.8995</ele>
        <time>2014-06-20T10:23:06Z</time>
      </trkpt>
      <trkpt lat="60.3380014" lon="20.2999915">
        <ele>33.3029</ele>
        <time>2014-06-20T10:23:12Z</time>
      </trkpt>
      <trkpt lat="60.3381693" lon="20.2997118">
        <ele>36.6675</ele>
        <time>2014-06-20T10:23:19Z</time>
      </trkpt>
      <trkpt lat="60.3382657" lon="20.2995046">
        <ele>37.6287</ele>
        <time>2014-06-20T10:23:24Z</time>
      </trkpt>
      <trkpt lat="60.3383704" lon="20.2993711">
        <ele>32.8223</ele>
        <time>2014-06-20T10:23:30Z</time>
      </trkpt>
      <trkpt lat="60.3383858" lon="20.2993529">
        <ele>32.3416</ele>
        <time>2014-06-20T10:23:31Z</time>
      </trkpt>
      <trkpt lat="60.3384972" lon="20.2990302">
        <ele>29.4575</ele>
        <time>2014-06-20T10:23:38Z</time>
      </trkpt>
      <trkpt lat="60.3386385" lon="20.2985949">
        <ele>33.7834</ele>
        <time>2014-06-20T10:23:45Z</time>
      </trkpt>
      <trkpt lat="60.3387848" lon="20.298264">
        <ele>33.7834</ele>
        <time>2014-06-20T10:23:51Z</time>
      </trkpt>
      <trkpt lat="60.3388888" lon="20.2979869">
        <ele>34.2642</ele>
        <time>2014-06-20T10:23:56Z</time>
      </trkpt>
      <trkpt lat="60.3390098" lon="20.2977264">
        <ele>33.3029</ele>
        <time>2014-06-20T10:24:02Z</time>
      </trkpt>
      <trkpt lat="60.3390928" lon="20.2975008">
        <ele>31.3801</ele>
        <time>2014-06-20T10:24:07Z</time>
      </trkpt>
      <trkpt lat="60.3391971" lon="20.2972561">
        <ele>33.7834</ele>
        <time>2014-06-20T10:24:12Z</time>
      </trkpt>
      <trkpt lat="60.3393218" lon="20.2969898">
        <ele>35.7061</ele>
        <time>2014-06-20T10:24:18Z</time>
      </trkpt>
      <trkpt lat="60.3394509" lon="20.2966575">
        <ele>35.2255</ele>
        <time>2014-06-20T10:24:25Z</time>
      </trkpt>
      <trkpt lat="60.3395038" lon="20.2965241">
        <ele>34.7449</ele>
        <time>2014-06-20T10:24:28Z</time>
      </trkpt>
      <trkpt lat="60.3396177" lon="20.2963003">
        <ele>33.3029</ele>
        <time>2014-06-20T10:24:34Z</time>
      </trkpt>
      <trkpt lat="60.339725" lon="20.2961003">
        <ele>32.3416</ele>
        <time>2014-06-20T10:24:40Z</time>
      </trkpt>
      <trkpt lat="60.3398555" lon="20.2959211">
        <ele>31.8607</ele>
        <time>2014-06-20T10:24:47Z</time>
      </trkpt>
      <trkpt lat="60.3399694" lon="20.2958044">
        <ele>32.3416</ele>
        <time>2014-06-20T10:24:52Z</time>
      </trkpt>
      <trkpt lat="60.3400595" lon="20.2956756">
        <ele>30.4188</ele>
        <time>2014-06-20T10:24:57Z</time>
      </trkpt>
      <trkpt lat="60.3402186" lon="20.2955072">
        <ele>28.4962</ele>
        <time>2014-06-20T10:25:03Z</time>
      </trkpt>
      <trkpt lat="60.3403732" lon="20.2953877">
        <ele>27.0543</ele>
        <time>2014-06-20T10:25:09Z</time>
      </trkpt>
      <trkpt lat="60.3404697" lon="20.2953248">
        <ele>23.6896</ele>
        <time>2014-06-20T10:25:13Z</time>
      </trkpt>
      <trkpt lat="60.3406127" lon="20.2952519">
        <ele>21.767</ele>
        <time>2014-06-20T10:25:19Z</time>
      </trkpt>
      <trkpt lat="60.3406648" lon="20.2952296">
        <ele>21.767</ele>
        <time>2014-06-20T10:25:21Z</time>
      </trkpt>
      <trkpt lat="60.3407517" lon="20.2949945">
        <ele>22.7283</ele>
        <time>2014-06-20T10:25:27Z</time>
      </trkpt>
      <trkpt lat="60.3408047" lon="20.294785">
        <ele>20.8057</ele>
        <time>2014-06-20T10:25:32Z</time>
      </trkpt>
      <trkpt lat="60.3408836" lon="20.2945754">
        <ele>21.767</ele>
        <time>2014-06-20T10:25:37Z</time>
      </trkpt>
      <trkpt lat="60.3409352" lon="20.2942841">
        <ele>19.3638</ele>
        <time>2014-06-20T10:25:43Z</time>
      </trkpt>
      <trkpt lat="60.3409645" lon="20.2941609">
        <ele>17.4412</ele>
        <time>2014-06-20T10:25:46Z</time>
      </trkpt>
      <trkpt lat="60.3410461" lon="20.29399">
        <ele>12.6344</ele>
        <time>2014-06-20T10:25:52Z</time>
      </trkpt>
      <trkpt lat="60.3411965" lon="20.2937927">
        <ele>9.2699</ele>
        <time>2014-06-20T10:26:00Z</time>
      </trkpt>
      <trkpt lat="60.3413302" lon="20.2936049">
        <ele>7.34717</ele>
        <time>2014-06-20T10:26:07Z</time>
      </trkpt>
      <trkpt lat="60.3413597" lon="20.2935239">
        <ele>7.34717</ele>
        <time>2014-06-20T10:26:09Z</time>
      </trkpt>
    </trkseg>
  </trk>
</gpx>